Terminal Aerodrome Forecast
Issued by NWS

Home | Current Version | Previous Version | Text Only | Print | Product List | Glossary On
Versions: 1 2 3 4 5 6 7 8 9 10 11 12 13 14
000
FTUS46 KSEW 230535
TAFCLM
TAF
KCLM 230535Z 2306/2406 24003KT P6SM VCSH BKN050
     FM231100 23004KT P6SM VCSH SCT015 BKN030 OVC050
     FM231700 VRB03KT P6SM -RA SCT008 BKN015 OVC030
     FM232100 32007KT 5SM -SHRA BR SCT010 BKN018 OVC045
     FM240300 28005KT P6SM VCSH SCT015 BKN040 OVC060=

USA.gov is the U.S. government's official web portal to all federal, state and local government web resources and services.